createdAt,value
2022-12-16T00:01:28.818Z,16.65
2022-12-16T00:03:30.781Z,19.65
2022-12-16T00:05:32.664Z,18.40
2022-12-16T00:07:34.743Z,18.05
2022-12-16T00:09:36.874Z,17.45
2022-12-16T00:11:39.757Z,17.63
2022-12-16T00:13:41.505Z,17.38
2022-12-16T00:15:48.837Z,16.58
2022-12-16T00:17:50.410Z,17.30
2022-12-16T00:19:53.344Z,17.63
2022-12-16T00:21:54.952Z,17.70
2022-12-16T00:23:57.097Z,17.40
2022-12-16T00:25:59.212Z,18.08
2022-12-16T00:28:02.144Z,17.20
2022-12-16T00:30:04.462Z,17.60
2022-12-16T00:32:06.123Z,18.13
2022-12-16T00:34:07.734Z,18.25
2022-12-16T00:36:09.829Z,17.40
2022-12-16T00:38:11.454Z,16.52
2022-12-16T00:40:13.105Z,15.70
2022-12-16T00:42:14.779Z,15.82
2022-12-16T00:44:17.678Z,16.00
2022-12-16T00:46:19.271Z,16.15
2022-12-16T00:48:21.246Z,14.35
2022-12-16T00:50:22.918Z,16.75
2022-12-16T00:52:24.492Z,16.15
2022-12-16T00:54:26.348Z,16.55
2022-12-16T00:56:27.930Z,15.40
2022-12-16T00:58:29.476Z,14.35
2022-12-16T01:00:32.412Z,16.33
2022-12-16T01:02:34.005Z,14.13
2022-12-16T01:04:35.576Z,15.15
2022-12-16T01:06:37.197Z,15.35
2022-12-16T01:08:38.793Z,14.32
2022-12-16T01:10:40.323Z,15.35
2022-12-16T01:12:41.888Z,14.23
2022-12-16T01:14:43.417Z,14.15
2022-12-16T01:16:46.368Z,14.45
2022-12-16T01:18:48.077Z,14.63
2022-12-16T01:20:49.623Z,15.85
2022-12-16T01:22:51.162Z,13.75
2022-12-16T01:24:53.855Z,14.85
2022-12-16T01:26:56.805Z,15.20
2022-12-16T01:28:58.369Z,14.38
2022-12-16T01:31:01.053Z,14.90
2022-12-16T01:33:03.976Z,13.25
2022-12-16T01:35:18.072Z,13.50
2022-12-16T01:37:27.766Z,15.30
2022-12-16T01:39:29.284Z,14.45
2022-12-16T01:41:30.844Z,15.07
2022-12-16T01:43:35.886Z,13.50
2022-12-16T01:45:38.362Z,14.43
2022-12-16T01:47:39.953Z,14.45
2022-12-16T01:49:45.427Z,14.73
2022-12-16T01:51:52.449Z,13.93
2022-12-16T01:54:00.865Z,15.73
2022-12-16T01:56:03.503Z,15.50
2022-12-16T01:58:09.191Z,14.50
2022-12-16T02:00:11.743Z,15.00
2022-12-16T02:02:14.693Z,15.05
2022-12-16T02:04:16.516Z,14.32
2022-12-16T02:06:19.946Z,15.10
2022-12-16T02:08:21.512Z,14.45
2022-12-16T02:10:33.697Z,14.38
2022-12-16T02:12:43.959Z,14.27
2022-12-16T02:15:13.059Z,15.13
2022-12-16T02:17:22.298Z,15.07
2022-12-16T02:19:47.343Z,16.05
2022-12-16T02:21:57.186Z,16.05
2022-12-16T02:24:30.676Z,13.50
2022-12-16T02:27:07.851Z,13.32
2022-12-16T02:29:32.443Z,14.55
2022-12-16T02:31:40.552Z,14.25
2022-12-16T02:33:58.981Z,14.55
2022-12-16T02:36:11.643Z,13.55
2022-12-16T02:38:22.225Z,13.23
2022-12-16T02:40:33.357Z,12.40
2022-12-16T02:42:42.003Z,14.77
2022-12-16T02:44:53.190Z,15.20
2022-12-16T02:46:56.672Z,14.77
2022-12-16T02:49:07.844Z,14.55
2022-12-16T02:51:10.039Z,14.15
2022-12-16T02:53:12.421Z,14.00
2022-12-16T02:55:14.930Z,15.43
2022-12-16T02:57:53.633Z,15.00
2022-12-16T03:00:02.937Z,14.10
2022-12-16T03:02:13.806Z,14.90
2022-12-16T03:04:21.677Z,14.65
2022-12-16T03:06:25.247Z,17.00
2022-12-16T03:08:35.427Z,13.63
2022-12-16T03:10:42.228Z,15.10
2022-12-16T03:12:46.021Z,13.70
2022-12-16T03:14:52.236Z,15.15
2022-12-16T03:16:54.897Z,14.50
2022-12-16T03:19:01.873Z,15.15
2022-12-16T03:21:06.569Z,14.98
2022-12-16T03:23:12.706Z,15.45
2022-12-16T03:25:15.737Z,15.10
2022-12-16T03:27:24.714Z,13.65
2022-12-16T03:29:33.705Z,16.27
2022-12-16T03:31:41.103Z,15.13
2022-12-16T03:33:48.580Z,14.43
2022-12-16T03:35:57.728Z,14.02
2022-12-16T03:38:04.062Z,14.48
2022-12-16T03:40:09.208Z,15.15
2022-12-16T03:42:12.741Z,14.80
2022-12-16T03:44:14.568Z,16.23
2022-12-16T03:46:17.792Z,14.98
2022-12-16T03:48:23.739Z,14.52
2022-12-16T03:50:29.767Z,15.05
2022-12-16T03:52:33.092Z,14.07
2022-12-16T03:54:34.806Z,13.98
2022-12-16T03:56:36.620Z,13.68
2022-12-16T03:58:38.403Z,12.80
2022-12-16T04:00:43.203Z,13.80
2022-12-16T04:02:45.365Z,14.20
2022-12-16T04:04:49.523Z,14.20
2022-12-16T04:06:51.229Z,14.45
2022-12-16T04:08:54.350Z,13.85
2022-12-16T04:10:56.111Z,15.07
2022-12-16T04:12:57.870Z,12.93
2022-12-16T04:14:59.816Z,13.38
2022-12-16T04:17:01.914Z,13.93
2022-12-16T04:19:03.762Z,14.90
2022-12-16T04:21:06.018Z,13.85
2022-12-16T04:23:10.515Z,14.13
2022-12-16T04:25:16.986Z,13.95
2022-12-16T04:27:18.741Z,14.73
2022-12-16T04:29:20.545Z,15.00
2022-12-16T04:31:28.278Z,14.23
2022-12-16T04:33:31.006Z,14.77
2022-12-16T04:35:33.253Z,13.52
2022-12-16T04:37:35.393Z,13.25
2022-12-16T04:39:37.305Z,14.73
2022-12-16T04:41:40.564Z,14.38
2022-12-16T04:43:44.268Z,15.30
2022-12-16T04:45:47.615Z,13.63
2022-12-16T04:47:52.735Z,13.27
2022-12-16T04:49:57.383Z,14.60
2022-12-16T04:51:59.347Z,15.27
2022-12-16T04:54:01.195Z,11.80
2022-12-16T04:56:04.788Z,15.57
2022-12-16T04:58:08.195Z,13.68
2022-12-16T05:00:11.007Z,14.93
2022-12-16T05:02:12.963Z,14.43
2022-12-16T05:04:15.103Z,12.95
2022-12-16T05:06:17.380Z,13.02
2022-12-16T05:08:19.572Z,13.10
2022-12-16T05:10:21.876Z,12.48
2022-12-16T05:12:24.146Z,12.75
2022-12-16T05:14:27.485Z,11.82
2022-12-16T05:16:31.880Z,13.23
2022-12-16T05:18:33.690Z,14.98
2022-12-16T05:20:35.458Z,13.88
2022-12-16T05:22:37.351Z,13.70
2022-12-16T05:24:39.003Z,13.48
2022-12-16T05:26:40.727Z,13.93
2022-12-16T05:28:42.522Z,15.65
2022-12-16T05:30:46.603Z,15.02
2022-12-16T05:32:49.024Z,15.65
2022-12-16T05:34:50.872Z,14.13
2022-12-16T05:36:53.296Z,13.88
2022-12-16T05:38:55.236Z,14.25
2022-12-16T05:40:57.102Z,12.82
2022-12-16T05:42:58.905Z,14.45
2022-12-16T05:45:00.765Z,14.77
2022-12-16T05:47:04.222Z,15.52
2022-12-16T05:49:06.176Z,14.27
2022-12-16T05:51:07.850Z,14.23
2022-12-16T05:53:12.820Z,14.15
2022-12-16T05:55:14.650Z,14.43
2022-12-16T05:57:16.576Z,13.93
2022-12-16T05:59:18.324Z,15.35
2022-12-16T06:01:20.135Z,14.35
2022-12-16T06:03:24.009Z,15.30
2022-12-16T06:05:26.962Z,13.70
2022-12-16T06:07:28.706Z,13.45
2022-12-16T06:09:30.964Z,15.48
2022-12-16T06:11:32.659Z,16.20
2022-12-16T06:13:43.450Z,16.40
2022-12-16T06:15:45.848Z,15.85
2022-12-16T06:17:49.284Z,20.52
2022-12-16T06:19:52.580Z,17.80
2022-12-16T06:21:54.292Z,27.70
2022-12-16T06:23:58.059Z,17.05
2022-12-16T06:25:59.858Z,16.15
2022-12-16T06:28:01.750Z,16.33
2022-12-16T06:30:04.346Z,14.50
2022-12-16T06:32:13.519Z,16.95
2022-12-16T06:34:15.758Z,14.35
2022-12-16T06:36:20.407Z,14.90
2022-12-16T06:38:25.058Z,13.57
2022-12-16T06:40:26.801Z,15.20
2022-12-16T06:42:28.750Z,15.02
2022-12-16T06:44:31.079Z,15.30
2022-12-16T06:46:32.975Z,17.42
2022-12-16T06:48:34.776Z,15.98
2022-12-16T06:50:42.946Z,14.40
2022-12-16T06:52:47.930Z,14.07
2022-12-16T06:54:49.927Z,17.10
2022-12-16T06:57:13.686Z,13.85
2022-12-16T06:59:19.247Z,19.17
2022-12-16T07:01:21.187Z,16.70
2022-12-16T07:03:22.980Z,14.32
2022-12-16T07:05:32.231Z,15.07
2022-12-16T07:07:36.906Z,16.00
2022-12-16T07:09:39.989Z,14.07
2022-12-16T07:11:41.824Z,16.20
2022-12-16T07:13:44.482Z,15.52
2022-12-16T07:15:46.791Z,14.75
2022-12-16T07:17:48.677Z,15.00
2022-12-16T07:19:50.329Z,16.08
2022-12-16T07:21:52.032Z,19.35
2022-12-16T07:23:56.955Z,19.48
2022-12-16T07:26:00.172Z,16.98
2022-12-16T07:28:01.925Z,18.95
2022-12-16T07:30:06.976Z,20.83
2022-12-16T07:32:09.258Z,14.32
2022-12-16T07:34:11.128Z,17.55
2022-12-16T07:36:12.897Z,15.70
2022-12-16T07:38:17.865Z,15.43
2022-12-16T07:40:19.776Z,15.50
2022-12-16T07:42:23.367Z,12.85
2022-12-16T07:44:25.137Z,13.80
2022-12-16T07:46:27.018Z,18.23
2022-12-16T07:48:31.130Z,12.88
2022-12-16T07:50:32.898Z,14.85
2022-12-16T07:52:34.694Z,15.32
2022-12-16T07:54:36.602Z,19.55
2022-12-16T07:56:39.604Z,15.50
2022-12-16T07:58:45.641Z,14.52
2022-12-16T08:00:47.411Z,17.20
2022-12-16T08:02:53.418Z,16.83
2022-12-16T08:04:57.679Z,15.93
2022-12-16T08:07:13.247Z,19.08
2022-12-16T08:09:17.242Z,15.45
2022-12-16T08:11:19.016Z,15.82
2022-12-16T08:13:25.849Z,15.13
2022-12-16T08:15:29.449Z,13.15
2022-12-16T08:17:31.272Z,15.00
2022-12-16T08:19:33.192Z,15.02
2022-12-16T08:21:35.178Z,15.20
2022-12-16T08:23:37.079Z,14.32
2022-12-16T08:25:38.876Z,15.48
2022-12-16T08:27:40.958Z,15.27
2022-12-16T08:29:44.710Z,13.95
2022-12-16T08:31:48.411Z,14.02
2022-12-16T08:33:50.367Z,13.73
2022-12-16T08:35:52.346Z,13.07
2022-12-16T08:37:55.232Z,12.70
2022-12-16T08:40:18.011Z,14.15
2022-12-16T08:42:19.778Z,13.82
2022-12-16T08:44:21.951Z,15.63
2022-12-16T08:46:29.861Z,15.07
2022-12-16T08:48:33.404Z,13.90
2022-12-16T08:50:35.240Z,13.43
2022-12-16T08:52:42.416Z,15.05
2022-12-16T08:54:47.403Z,14.85
2022-12-16T08:56:49.175Z,15.30
2022-12-16T08:58:51.158Z,15.25
2022-12-16T09:00:54.371Z,13.88
2022-12-16T09:02:56.916Z,14.27
2022-12-16T09:05:00.723Z,16.33
2022-12-16T09:07:02.554Z,14.73
2022-12-16T09:09:07.004Z,15.20
2022-12-16T09:11:08.775Z,17.23
2022-12-16T09:13:15.163Z,15.35
2022-12-16T09:15:16.871Z,16.38
2022-12-16T09:17:20.800Z,17.33
2022-12-16T09:19:22.535Z,16.08
2022-12-16T09:21:30.222Z,17.83
2022-12-16T09:23:33.909Z,14.05
2022-12-16T09:25:35.970Z,17.27
2022-12-16T09:27:37.741Z,16.42
2022-12-16T09:29:45.069Z,16.35
2022-12-16T09:31:47.648Z,20.17
2022-12-16T09:33:52.283Z,17.55
2022-12-16T09:35:54.085Z,19.30
2022-12-16T09:38:00.911Z,16.75
2022-12-16T09:40:03.107Z,51.90
2022-12-16T09:42:17.411Z,33.15
2022-12-16T09:44:26.560Z,18.70
2022-12-16T09:46:37.592Z,16.67
2022-12-16T09:48:43.725Z,28.38
2022-12-16T09:50:46.501Z,20.58
2022-12-16T09:52:57.368Z,14.70
2022-12-16T09:55:02.198Z,15.02
2022-12-16T09:57:08.129Z,14.27
2022-12-16T09:59:13.577Z,13.73
2022-12-16T10:01:16.129Z,15.48
2022-12-16T10:03:23.850Z,15.45
2022-12-16T10:05:43.884Z,14.38
2022-12-16T10:07:57.190Z,17.90
2022-12-16T10:10:08.885Z,15.95
2022-12-16T10:12:21.577Z,17.80
2022-12-16T10:14:31.654Z,24.67
2022-12-16T10:16:49.563Z,24.15
2022-12-16T10:18:59.066Z,14.60
2022-12-16T10:21:01.128Z,13.35
2022-12-16T10:23:09.212Z,15.65
2022-12-16T10:25:24.658Z,19.60
2022-12-16T10:27:37.571Z,15.55
2022-12-16T10:29:42.801Z,15.15
2022-12-16T10:31:44.965Z,16.20
2022-12-16T10:33:50.310Z,15.43
2022-12-16T10:35:55.622Z,15.25
2022-12-16T10:37:57.694Z,14.70
2022-12-16T10:40:00.799Z,14.18
2022-12-16T10:42:09.272Z,13.80
2022-12-16T10:44:19.898Z,14.32
2022-12-16T10:46:27.743Z,12.70
2022-12-16T10:48:32.851Z,13.90
2022-12-16T10:50:34.827Z,14.70
2022-12-16T10:52:44.453Z,12.30
2022-12-16T10:54:52.114Z,14.23
2022-12-16T10:57:06.636Z,14.10
2022-12-16T10:59:11.823Z,14.40
2022-12-16T11:01:26.892Z,14.48
2022-12-16T11:03:31.050Z,13.98
2022-12-16T11:05:36.729Z,13.70
2022-12-16T11:07:40.016Z,13.85
2022-12-16T11:09:41.814Z,12.88
2022-12-16T11:11:43.580Z,13.02
2022-12-16T11:13:45.532Z,16.15
2022-12-16T11:16:07.533Z,16.60
2022-12-16T11:18:16.880Z,12.15
2022-12-16T11:20:21.581Z,14.73
2022-12-16T11:22:24.255Z,14.45
2022-12-16T11:24:26.270Z,15.07
2022-12-16T11:26:33.110Z,15.20
2022-12-16T11:28:37.890Z,16.60
2022-12-16T11:30:39.799Z,14.80
2022-12-16T11:32:49.447Z,14.40
2022-12-16T11:34:55.689Z,13.68
2022-12-16T11:36:58.036Z,12.43
2022-12-16T11:39:00.358Z,13.40
2022-12-16T11:41:03.680Z,13.13
2022-12-16T11:43:12.861Z,13.40
2022-12-16T11:45:20.496Z,12.50
2022-12-16T11:47:34.811Z,14.45
2022-12-16T11:49:38.435Z,13.93
2022-12-16T11:51:41.639Z,13.45
2022-12-16T11:53:51.202Z,14.38
2022-12-16T11:56:06.583Z,12.90
2022-12-16T11:58:20.304Z,14.15
2022-12-16T12:00:22.392Z,13.90
2022-12-16T12:02:31.790Z,12.43
2022-12-16T12:04:33.969Z,13.73
2022-12-16T12:07:00.005Z,13.32
2022-12-16T12:09:11.318Z,12.10
2022-12-16T12:11:20.823Z,14.40
2022-12-16T12:13:46.079Z,13.48
2022-12-16T12:15:56.122Z,14.32
2022-12-16T12:18:05.584Z,11.82
2022-12-16T12:20:30.795Z,12.60
2022-12-16T12:22:35.827Z,12.75
2022-12-16T12:24:47.717Z,14.35
2022-12-16T12:26:58.156Z,12.27
2022-12-16T12:29:10.096Z,12.52
2022-12-16T12:31:27.607Z,13.45
2022-12-16T12:33:37.936Z,13.07
2022-12-16T12:35:53.833Z,13.38
2022-12-16T12:38:03.675Z,12.65
2022-12-16T12:40:25.624Z,12.77
2022-12-16T12:42:38.483Z,12.02
2022-12-16T12:44:49.554Z,11.85
2022-12-16T12:46:57.336Z,12.48
2022-12-16T12:49:07.240Z,12.93
2022-12-16T12:51:21.554Z,12.57
2022-12-16T12:53:36.618Z,13.02
2022-12-16T12:55:43.637Z,12.27
2022-12-16T12:57:49.798Z,12.70
2022-12-16T13:00:02.228Z,11.48
2022-12-16T13:02:16.150Z,12.15
2022-12-16T13:06:39.170Z,10.90
2022-12-16T13:08:53.840Z,12.10
2022-12-16T13:11:12.709Z,12.27
2022-12-16T13:13:36.318Z,12.40
2022-12-16T13:15:42.031Z,11.38
2022-12-16T13:18:32.664Z,11.40
2022-12-16T13:20:38.335Z,12.77
2022-12-16T13:22:43.097Z,11.30
2022-12-16T13:25:33.180Z,14.18
2022-12-16T13:27:53.153Z,11.77
2022-12-16T13:30:02.770Z,11.80
2022-12-16T13:32:20.058Z,13.38
2022-12-16T13:34:28.040Z,13.02
2022-12-16T13:36:34.738Z,13.23
2022-12-16T13:38:44.648Z,11.95
2022-12-16T13:40:54.490Z,11.80
2022-12-16T13:42:56.247Z,11.73
2022-12-16T13:44:59.520Z,12.27
2022-12-16T13:47:01.584Z,11.50
2022-12-16T13:49:36.777Z,12.13
2022-12-16T13:52:02.534Z,12.02
2022-12-16T13:54:13.803Z,12.10
2022-12-16T13:56:20.686Z,11.60
2022-12-16T13:58:36.485Z,11.00
2022-12-16T14:00:41.614Z,11.48
2022-12-16T14:02:44.014Z,18.73
2022-12-16T14:04:51.055Z,13.73
2022-12-16T14:06:53.562Z,13.25
2022-12-16T14:08:58.011Z,12.88
2022-12-16T14:11:03.763Z,15.05
2022-12-16T14:13:15.646Z,12.43
2022-12-16T14:15:31.347Z,13.82
2022-12-16T14:17:45.221Z,25.45
2022-12-16T14:19:58.748Z,18.15
2022-12-16T14:22:21.937Z,14.32
2022-12-16T14:24:27.108Z,19.00
2022-12-16T14:26:34.850Z,16.63
2022-12-16T14:28:41.963Z,16.05
2022-12-16T14:30:45.117Z,15.55
2022-12-16T14:32:47.168Z,12.68
2022-12-16T14:35:02.013Z,13.75
2022-12-16T14:37:12.860Z,13.93
2022-12-16T14:39:27.865Z,13.35
2022-12-16T14:41:32.631Z,34.33
2022-12-16T14:43:36.297Z,17.60
2022-12-16T14:45:39.875Z,14.23
2022-12-16T14:47:41.724Z,13.82
2022-12-16T14:49:53.043Z,15.02
2022-12-16T14:52:00.794Z,14.65
2022-12-16T14:54:35.035Z,15.57
2022-12-16T14:56:37.242Z,16.58
2022-12-16T14:59:05.833Z,13.05
2022-12-16T15:01:34.841Z,12.95
2022-12-16T15:03:40.854Z,12.98
2022-12-16T15:05:49.920Z,15.18
2022-12-16T15:07:52.007Z,13.65
2022-12-16T15:09:57.832Z,14.23
2022-12-16T15:12:00.151Z,13.70
2022-12-16T15:14:05.797Z,13.50
2022-12-16T15:16:17.679Z,16.92
2022-12-16T15:18:32.141Z,15.77
2022-12-16T15:20:37.300Z,13.45
2022-12-16T15:22:53.460Z,15.88
2022-12-16T15:24:58.354Z,16.23
2022-12-16T15:27:16.434Z,20.15
2022-12-16T15:29:29.973Z,16.35
2022-12-16T15:31:38.789Z,16.27
2022-12-16T15:33:46.695Z,15.07
2022-12-16T15:35:50.352Z,15.38
2022-12-16T15:37:52.299Z,14.10
2022-12-16T15:39:58.509Z,14.30
2022-12-16T15:42:02.543Z,16.02
2022-12-16T15:44:13.745Z,14.85
2022-12-16T15:46:22.699Z,15.40
2022-12-16T15:48:27.456Z,16.02
2022-12-16T15:50:33.564Z,16.17
2022-12-16T15:52:40.208Z,16.73
2022-12-16T15:54:55.369Z,16.45
2022-12-16T15:57:00.371Z,14.73
2022-12-16T15:59:22.769Z,15.18
2022-12-16T16:01:39.274Z,13.95
2022-12-16T16:03:52.528Z,14.32
2022-12-16T16:05:59.357Z,14.38
2022-12-16T16:08:03.821Z,14.60
2022-12-16T16:10:25.176Z,14.73
2022-12-16T16:12:41.773Z,15.25
2022-12-16T16:14:43.712Z,14.00
2022-12-16T16:16:47.912Z,16.80
2022-12-16T16:18:49.780Z,14.95
2022-12-16T16:20:56.513Z,15.63
2022-12-16T16:23:09.714Z,13.82
2022-12-16T16:25:18.036Z,16.17
2022-12-16T16:27:22.643Z,22.75
2022-12-16T16:29:25.006Z,16.23
2022-12-16T16:31:29.898Z,16.83
2022-12-16T16:33:32.455Z,17.08
2022-12-16T16:35:35.183Z,19.52
2022-12-16T16:37:38.891Z,18.20
2022-12-16T16:39:44.155Z,22.88
2022-12-16T16:41:47.698Z,17.67
2022-12-16T16:43:49.881Z,22.75
2022-12-16T16:45:54.689Z,21.98
2022-12-16T16:48:05.368Z,16.15
2022-12-16T16:50:07.240Z,19.33
2022-12-16T16:52:14.079Z,16.23
2022-12-16T16:54:17.434Z,18.92
2022-12-16T16:56:20.310Z,17.88
2022-12-16T16:58:27.394Z,17.05
2022-12-16T17:00:30.264Z,20.08
2022-12-16T17:02:36.031Z,19.75
2022-12-16T17:04:40.766Z,29.95
2022-12-16T17:06:44.015Z,21.00
2022-12-16T17:08:45.841Z,27.15
2022-12-16T17:10:48.993Z,18.33
2022-12-16T17:12:50.720Z,23.80
2022-12-16T17:14:52.458Z,19.30
2022-12-16T17:16:54.695Z,17.67
2022-12-16T17:18:56.474Z,18.60
2022-12-16T17:20:58.252Z,17.90
2022-12-16T17:23:00.473Z,16.55
2022-12-16T17:25:02.559Z,17.10
2022-12-16T17:27:14.546Z,16.10
2022-12-16T17:29:21.010Z,16.67
2022-12-16T17:31:22.694Z,17.20
2022-12-16T17:33:24.904Z,16.77
2022-12-16T17:35:26.639Z,16.70
2022-12-16T17:37:28.390Z,17.10
2022-12-16T17:39:30.300Z,16.23
2022-12-16T17:41:32.953Z,17.10
2022-12-16T17:43:36.765Z,16.30
2022-12-16T17:45:41.379Z,16.77
2022-12-16T17:47:43.238Z,16.65
2022-12-16T17:49:45.141Z,18.65
2022-12-16T17:51:46.862Z,20.23
2022-12-16T17:53:48.959Z,19.50
2022-12-16T17:55:50.694Z,21.30
2022-12-16T17:57:52.526Z,27.10
2022-12-16T17:59:56.077Z,42.97
2022-12-16T18:01:57.867Z,51.88
2022-12-16T18:03:59.936Z,47.95
2022-12-16T18:06:01.751Z,32.70
2022-12-16T18:08:03.812Z,26.48
2022-12-16T18:10:06.477Z,23.33
2022-12-16T18:12:08.187Z,23.08
2022-12-16T18:14:09.982Z,20.92
2022-12-16T18:16:13.388Z,22.10
2022-12-16T18:18:15.515Z,27.38
2022-12-16T18:20:17.610Z,27.05
2022-12-16T18:22:19.327Z,23.45
2022-12-16T18:24:21.491Z,21.25
2022-12-16T18:26:24.795Z,21.05
2022-12-16T18:28:30.791Z,24.25
2022-12-16T18:30:32.623Z,21.30
2022-12-16T18:32:35.758Z,19.15
2022-12-16T18:34:37.460Z,19.98
2022-12-16T18:36:41.315Z,19.30
2022-12-16T18:38:50.163Z,21.90
2022-12-16T18:41:01.622Z,25.02
2022-12-16T18:43:03.357Z,25.67
2022-12-16T18:45:08.808Z,21.98
2022-12-16T18:47:13.455Z,21.05
2022-12-16T18:49:18.068Z,23.35
2022-12-16T18:51:20.078Z,24.15
2022-12-16T18:53:22.061Z,24.67
2022-12-16T18:55:24.173Z,27.00
2022-12-16T18:57:25.947Z,23.33
2022-12-16T18:59:30.056Z,19.00
2022-12-16T19:01:31.941Z,21.05
2022-12-16T19:03:34.105Z,18.60
2022-12-16T19:05:37.512Z,20.20
2022-12-16T19:07:42.430Z,19.50
2022-12-16T19:09:46.414Z,22.05
2022-12-16T19:11:56.994Z,26.27
2022-12-16T19:14:07.893Z,20.73
2022-12-16T19:16:11.768Z,21.13
2022-12-16T19:18:14.804Z,20.00
2022-12-16T19:20:16.682Z,18.42
2022-12-16T19:22:20.331Z,19.63
2022-12-16T19:24:22.128Z,19.05
2022-12-16T19:26:24.490Z,17.30
2022-12-16T19:28:28.675Z,21.80
2022-12-16T19:30:35.997Z,18.33
2022-12-16T19:32:38.196Z,19.27
2022-12-16T19:34:41.636Z,18.05
2022-12-16T19:36:48.185Z,18.65
2022-12-16T19:38:53.369Z,17.35
2022-12-16T19:40:59.195Z,17.75
2022-12-16T19:43:01.231Z,20.02
2022-12-16T19:45:03.266Z,18.70
2022-12-16T19:47:05.224Z,18.73
2022-12-16T19:49:06.995Z,15.60
2022-12-16T19:51:09.580Z,17.33
2022-12-16T19:53:12.445Z,20.05
2022-12-16T19:55:17.654Z,20.50
2022-12-16T19:57:37.882Z,18.73
2022-12-16T19:59:39.913Z,19.98
2022-12-16T20:01:41.837Z,19.42
2022-12-16T20:03:46.465Z,18.98
2022-12-16T20:06:02.503Z,14.77
2022-12-16T20:08:04.573Z,19.73
2022-12-16T20:10:07.421Z,20.88
2022-12-16T20:12:12.970Z,25.40
2022-12-16T20:14:14.751Z,20.85
2022-12-16T20:16:16.905Z,19.63
2022-12-16T20:18:23.473Z,19.05
2022-12-16T20:20:25.288Z,17.13
2022-12-16T20:22:29.316Z,23.13
2022-12-16T20:24:31.182Z,20.30
2022-12-16T20:26:32.939Z,17.92
2022-12-16T20:28:36.292Z,17.77
2022-12-16T20:30:39.061Z,19.13
2022-12-16T20:32:40.918Z,17.73
2022-12-16T20:34:42.704Z,17.63
2022-12-16T20:36:44.426Z,19.45
2022-12-16T20:38:48.314Z,22.15
2022-12-16T20:40:56.333Z,26.23
2022-12-16T20:42:58.062Z,23.88
2022-12-16T20:45:02.383Z,26.90
2022-12-16T20:47:04.306Z,28.25
2022-12-16T20:49:06.103Z,23.33
2022-12-16T20:51:09.416Z,23.63
2022-12-16T20:53:11.169Z,28.63
2022-12-16T20:55:16.044Z,25.23
2022-12-16T20:57:18.007Z,26.35
2022-12-16T20:59:19.895Z,23.63
2022-12-16T21:01:23.148Z,28.98
2022-12-16T21:03:25.266Z,24.48
2022-12-16T21:05:29.733Z,23.17
2022-12-16T21:07:31.590Z,24.63
2022-12-16T21:09:33.381Z,23.60
2022-12-16T21:11:35.185Z,24.00
2022-12-16T21:13:37.151Z,26.55
2022-12-16T21:15:41.892Z,22.55
2022-12-16T21:17:45.080Z,21.83
2022-12-16T21:19:46.857Z,23.17
2022-12-16T21:21:48.475Z,28.55
2022-12-16T21:23:50.204Z,26.75
2022-12-16T21:25:52.188Z,39.15
2022-12-16T21:27:57.144Z,31.42
2022-12-16T21:30:01.412Z,24.45
2022-12-16T21:32:03.668Z,24.55
2022-12-16T21:34:06.971Z,21.73
2022-12-16T21:36:08.961Z,23.65
2022-12-16T21:38:12.982Z,22.58
2022-12-16T21:40:14.967Z,23.05
2022-12-16T21:42:16.757Z,21.38
2022-12-16T21:44:18.661Z,24.08
2022-12-16T21:46:20.373Z,20.38
2022-12-16T21:48:22.224Z,26.25
2022-12-16T21:50:25.734Z,18.73
2022-12-16T21:52:27.838Z,21.65
2022-12-16T21:54:29.490Z,19.83
2022-12-16T21:56:31.241Z,23.00
2022-12-16T21:58:33.148Z,23.75
2022-12-16T22:00:35.101Z,22.30
2022-12-16T22:02:37.113Z,19.13
2022-12-16T22:04:38.854Z,18.98
2022-12-16T22:06:48.310Z,19.50
2022-12-16T22:08:51.717Z,20.38
2022-12-16T22:10:54.099Z,17.95
2022-12-16T22:12:59.273Z,17.88
2022-12-16T22:15:01.040Z,19.05
2022-12-16T22:17:02.897Z,17.20
2022-12-16T22:19:05.034Z,17.65
2022-12-16T22:21:06.871Z,17.50
2022-12-16T22:23:10.805Z,18.63
2022-12-16T22:25:14.517Z,16.65
2022-12-16T22:27:16.634Z,16.73
2022-12-16T22:29:20.111Z,17.35
2022-12-16T22:31:22.086Z,18.08
2022-12-16T22:33:23.874Z,16.58
2022-12-16T22:35:25.680Z,18.45
2022-12-16T22:37:27.435Z,18.48
2022-12-16T22:39:30.850Z,16.35
2022-12-16T22:41:32.674Z,17.10
2022-12-16T22:43:34.917Z,16.65
2022-12-16T22:45:36.858Z,16.80
2022-12-16T22:47:38.714Z,20.48
2022-12-16T22:49:40.662Z,17.17
2022-12-16T22:51:42.417Z,16.45
2022-12-16T22:53:44.733Z,16.40
2022-12-16T22:56:02.271Z,17.60
2022-12-16T22:58:07.186Z,15.32
2022-12-16T23:00:10.213Z,18.85
2022-12-16T23:02:12.136Z,16.73
2022-12-16T23:04:14.223Z,17.27
2022-12-16T23:06:16.003Z,17.98
2022-12-16T23:08:17.914Z,15.05
2022-12-16T23:10:19.805Z,17.10
2022-12-16T23:12:23.352Z,17.88
2022-12-16T23:14:25.256Z,17.30
2022-12-16T23:16:27.216Z,17.13
2022-12-16T23:18:29.005Z,17.38
2022-12-16T23:20:33.795Z,17.35
2022-12-16T23:22:35.653Z,14.75
2022-12-16T23:24:37.460Z,15.10
2022-12-16T23:26:39.135Z,15.85
2022-12-16T23:28:42.485Z,15.20
2022-12-16T23:30:52.048Z,16.52
2022-12-16T23:32:57.271Z,16.80
2022-12-16T23:34:59.156Z,15.73
2022-12-16T23:37:00.803Z,15.60
2022-12-16T23:39:02.530Z,15.55
2022-12-16T23:41:04.424Z,15.45
2022-12-16T23:43:06.255Z,16.50
2022-12-16T23:45:13.270Z,19.30
2022-12-16T23:47:15.022Z,22.65
2022-12-16T23:49:16.731Z,27.20
2022-12-16T23:51:18.485Z,20.02
2022-12-16T23:53:20.273Z,21.92
2022-12-16T23:55:22.011Z,21.67
2022-12-16T23:57:24.047Z,19.67
2022-12-16T23:59:25.806Z,20.95
